sensor_id;sensor_type;location;lat;lon;timestamp;pressure;altitude;pressure_sealevel;temperature;humidity
63306;BME280;50735;52.060;1.248;2023-10-09T00:01:32;101789.83;;;15.88;50.82
63306;BME280;50735;52.060;1.248;2023-10-09T00:04:04;101794.27;;;15.79;50.84
63306;BME280;50735;52.060;1.248;2023-10-09T00:06:35;101791.67;;;15.74;50.79
63306;BME280;50735;52.060;1.248;2023-10-09T00:09:08;101791.27;;;15.84;50.99
63306;BME280;50735;52.060;1.248;2023-10-09T00:11:41;101791.48;;;15.75;50.77
63306;BME280;50735;52.060;1.248;2023-10-09T00:14:13;101790.88;;;15.64;50.85
63306;BME280;50735;52.060;1.248;2023-10-09T00:16:44;101784.87;;;15.76;50.93
63306;BME280;50735;52.060;1.248;2023-10-09T00:19:16;101785.19;;;15.80;50.66
63306;BME280;50735;52.060;1.248;2023-10-09T00:21:49;101792.33;;;15.60;51.21
63306;BME280;50735;52.060;1.248;2023-10-09T00:24:21;101785.57;;;15.46;50.93
63306;BME280;50735;52.060;1.248;2023-10-09T00:26:54;101791.13;;;15.58;50.67
63306;BME280;50735;52.060;1.248;2023-10-09T00:29:26;101797.30;;;15.79;50.61
63306;BME280;50735;52.060;1.248;2023-10-09T00:31:57;101798.58;;;15.65;50.41
63306;BME280;50735;52.060;1.248;2023-10-09T00:34:29;101791.76;;;15.82;50.46
63306;BME280;50735;52.060;1.248;2023-10-09T00:37:01;101786.18;;;15.91;50.16
63306;BME280;50735;52.060;1.248;2023-10-09T00:39:33;101783.67;;;15.81;50.16
63306;BME280;50735;52.060;1.248;2023-10-09T00:42:05;101787.58;;;15.66;50.12
63306;BME280;50735;52.060;1.248;2023-10-09T00:44:37;101784.15;;;15.47;50.22
63306;BME280;50735;52.060;1.248;2023-10-09T00:47:11;101790.16;;;15.55;50.17
63306;BME280;50735;52.060;1.248;2023-10-09T00:49:42;101791.29;;;15.51;50.14
63306;BME280;50735;52.060;1.248;2023-10-09T00:52:15;101784.25;;;15.74;49.94
63306;BME280;50735;52.060;1.248;2023-10-09T00:54:47;101781.92;;;15.30;50.17
63306;BME280;50735;52.060;1.248;2023-10-09T00:57:19;101783.26;;;15.36;50.03
63306;BME280;50735;52.060;1.248;2023-10-09T00:59:54;101786.36;;;15.50;49.74
63306;BME280;50735;52.060;1.248;2023-10-09T01:02:27;101783.90;;;15.47;49.76
63306;BME280;50735;52.060;1.248;2023-10-09T01:05:00;101781.04;;;15.50;49.68
63306;BME280;50735;52.060;1.248;2023-10-09T01:07:31;101780.38;;;15.36;49.57
63306;BME280;50735;52.060;1.248;2023-10-09T01:10:04;101781.88;;;15.07;49.80
63306;BME280;50735;52.060;1.248;2023-10-09T01:12:35;101775.70;;;15.43;49.81
63306;BME280;50735;52.060;1.248;2023-10-09T01:15:08;101771.56;;;15.06;49.75
63306;BME280;50735;52.060;1.248;2023-10-09T01:17:40;101768.66;;;15.28;49.46
63306;BME280;50735;52.060;1.248;2023-10-09T01:20:11;101765.20;;;15.27;49.40
63306;BME280;50735;52.060;1.248;2023-10-09T01:22:43;101756.00;;;15.29;49.25
63306;BME280;50735;52.060;1.248;2023-10-09T01:25:15;101751.05;;;15.54;48.98
63306;BME280;50735;52.060;1.248;2023-10-09T01:27:46;101750.55;;;15.11;48.80
63306;BME280;50735;52.060;1.248;2023-10-09T01:30:18;101750.81;;;14.95;49.01
63306;BME280;50735;52.060;1.248;2023-10-09T01:32:50;101750.05;;;15.25;49.27
63306;BME280;50735;52.060;1.248;2023-10-09T01:35:21;101749.60;;;14.85;49.34
63306;BME280;50735;52.060;1.248;2023-10-09T01:37:53;101760.22;;;15.00;49.39
63306;BME280;50735;52.060;1.248;2023-10-09T01:40:25;101758.52;;;15.12;49.37
63306;BME280;50735;52.060;1.248;2023-10-09T01:42:56;101751.68;;;15.14;49.26
63306;BME280;50735;52.060;1.248;2023-10-09T01:45:28;101751.07;;;15.12;48.78
63306;BME280;50735;52.060;1.248;2023-10-09T01:48:00;101744.26;;;15.41;48.73
63306;BME280;50735;52.060;1.248;2023-10-09T01:50:33;101740.53;;;15.40;48.37
63306;BME280;50735;52.060;1.248;2023-10-09T01:53:05;101742.41;;;15.59;48.41
63306;BME280;50735;52.060;1.248;2023-10-09T01:55:37;101744.15;;;15.48;48.36
63306;BME280;50735;52.060;1.248;2023-10-09T01:58:09;101739.57;;;15.63;48.19
63306;BME280;50735;52.060;1.248;2023-10-09T02:00:41;101737.53;;;15.81;47.92
63306;BME280;50735;52.060;1.248;2023-10-09T02:03:13;101736.09;;;15.74;47.77
63306;BME280;50735;52.060;1.248;2023-10-09T02:05:44;101747.19;;;15.64;47.99
63306;BME280;50735;52.060;1.248;2023-10-09T02:08:16;101754.00;;;15.32;48.33
63306;BME280;50735;52.060;1.248;2023-10-09T02:10:48;101743.15;;;15.58;48.30
63306;BME280;50735;52.060;1.248;2023-10-09T02:13:20;101742.15;;;15.38;48.40
63306;BME280;50735;52.060;1.248;2023-10-09T02:15:52;101738.13;;;15.40;48.35
63306;BME280;50735;52.060;1.248;2023-10-09T02:18:24;101734.45;;;15.37;48.20
63306;BME280;50735;52.060;1.248;2023-10-09T02:21:05;101731.05;;;15.28;48.34
63306;BME280;50735;52.060;1.248;2023-10-09T02:23:38;101737.98;;;15.41;48.10
63306;BME280;50735;52.060;1.248;2023-10-09T02:26:12;101745.23;;;15.31;48.14
63306;BME280;50735;52.060;1.248;2023-10-09T02:28:44;101739.07;;;15.14;47.94
63306;BME280;50735;52.060;1.248;2023-10-09T02:31:16;101730.91;;;15.28;47.61
63306;BME280;50735;52.060;1.248;2023-10-09T02:33:48;101728.35;;;15.33;47.34
63306;BME280;50735;52.060;1.248;2023-10-09T02:36:21;101732.86;;;15.55;47.27
63306;BME280;50735;52.060;1.248;2023-10-09T02:38:52;101734.55;;;15.29;47.35
63306;BME280;50735;52.060;1.248;2023-10-09T02:41:24;101736.50;;;15.53;47.38
63306;BME280;50735;52.060;1.248;2023-10-09T02:43:55;101736.52;;;15.45;47.23
63306;BME280;50735;52.060;1.248;2023-10-09T02:46:27;101732.35;;;15.44;47.05
63306;BME280;50735;52.060;1.248;2023-10-09T02:48:59;101734.72;;;15.26;47.27
63306;BME280;50735;52.060;1.248;2023-10-09T02:51:30;101732.47;;;15.53;47.15
63306;BME280;50735;52.060;1.248;2023-10-09T02:54:03;101740.77;;;15.57;47.08
63306;BME280;50735;52.060;1.248;2023-10-09T02:56:35;101729.38;;;15.60;47.02
63306;BME280;50735;52.060;1.248;2023-10-09T02:59:07;101728.41;;;15.63;46.87
63306;BME280;50735;52.060;1.248;2023-10-09T03:01:40;101735.09;;;15.55;46.91
63306;BME280;50735;52.060;1.248;2023-10-09T03:04:12;101738.48;;;15.52;47.02
63306;BME280;50735;52.060;1.248;2023-10-09T03:06:45;101734.48;;;15.58;46.92
63306;BME280;50735;52.060;1.248;2023-10-09T03:09:17;101737.25;;;15.47;46.87
63306;BME280;50735;52.060;1.248;2023-10-09T03:11:49;101742.08;;;15.48;46.89
63306;BME280;50735;52.060;1.248;2023-10-09T03:14:22;101739.64;;;15.49;46.97
63306;BME280;50735;52.060;1.248;2023-10-09T03:16:54;101742.35;;;15.75;46.78
63306;BME280;50735;52.060;1.248;2023-10-09T03:19:26;101736.51;;;15.28;47.04
63306;BME280;50735;52.060;1.248;2023-10-09T03:21:58;101740.45;;;15.31;46.78
63306;BME280;50735;52.060;1.248;2023-10-09T03:24:30;101743.17;;;15.41;47.02
63306;BME280;50735;52.060;1.248;2023-10-09T03:27:02;101743.81;;;15.46;46.93
63306;BME280;50735;52.060;1.248;2023-10-09T03:29:34;101743.66;;;15.43;46.78
63306;BME280;50735;52.060;1.248;2023-10-09T03:32:06;101750.34;;;15.15;46.89
63306;BME280;50735;52.060;1.248;2023-10-09T03:34:37;101754.31;;;15.22;47.21
63306;BME280;50735;52.060;1.248;2023-10-09T03:37:09;101755.62;;;15.02;47.22
63306;BME280;50735;52.060;1.248;2023-10-09T03:39:41;101750.91;;;15.18;47.34
63306;BME280;50735;52.060;1.248;2023-10-09T03:42:12;101754.11;;;15.14;47.31
63306;BME280;50735;52.060;1.248;2023-10-09T03:44:44;101753.40;;;15.15;47.18
63306;BME280;50735;52.060;1.248;2023-10-09T03:47:17;101761.26;;;15.14;47.20
63306;BME280;50735;52.060;1.248;2023-10-09T03:49:48;101758.52;;;15.30;47.25
63306;BME280;50735;52.060;1.248;2023-10-09T03:52:20;101750.42;;;15.04;47.43
63306;BME280;50735;52.060;1.248;2023-10-09T03:54:52;101750.74;;;15.20;47.31
63306;BME280;50735;52.060;1.248;2023-10-09T03:57:24;101746.98;;;15.02;47.32
63306;BME280;50735;52.060;1.248;2023-10-09T03:59:55;101747.66;;;15.22;52.39
63306;BME280;50735;52.060;1.248;2023-10-09T04:02:27;101749.49;;;15.08;48.32
63306;BME280;50735;52.060;1.248;2023-10-09T04:04:59;101747.51;;;15.12;47.78
63306;BME280;50735;52.060;1.248;2023-10-09T04:07:31;101747.89;;;15.09;47.70
63306;BME280;50735;52.060;1.248;2023-10-09T04:10:04;101742.57;;;15.02;47.80
63306;BME280;50735;52.060;1.248;2023-10-09T04:12:36;101740.65;;;15.00;47.84
63306;BME280;50735;52.060;1.248;2023-10-09T04:15:08;101737.28;;;14.98;47.82
63306;BME280;50735;52.060;1.248;2023-10-09T04:17:40;101736.00;;;14.97;47.75
63306;BME280;50735;52.060;1.248;2023-10-09T04:20:13;101730.82;;;15.30;47.70
63306;BME280;50735;52.060;1.248;2023-10-09T04:22:44;101730.77;;;14.88;47.73
63306;BME280;50735;52.060;1.248;2023-10-09T04:25:17;101735.24;;;14.98;47.84
63306;BME280;50735;52.060;1.248;2023-10-09T04:27:49;101742.57;;;14.89;48.19
63306;BME280;50735;52.060;1.248;2023-10-09T04:30:20;101747.58;;;14.81;48.40
63306;BME280;50735;52.060;1.248;2023-10-09T04:32:52;101749.32;;;14.56;48.41
63306;BME280;50735;52.060;1.248;2023-10-09T04:35:24;101747.58;;;14.86;48.56
63306;BME280;50735;52.060;1.248;2023-10-09T04:37:56;101733.44;;;14.33;48.99
63306;BME280;50735;52.060;1.248;2023-10-09T04:40:28;101721.53;;;14.41;49.07
63306;BME280;50735;52.060;1.248;2023-10-09T04:43:00;101718.72;;;14.39;49.41
63306;BME280;50735;52.060;1.248;2023-10-09T04:45:35;101715.57;;;14.28;49.62
63306;BME280;50735;52.060;1.248;2023-10-09T04:48:08;101713.16;;;14.18;50.04
63306;BME280;50735;52.060;1.248;2023-10-09T04:50:39;101725.63;;;14.01;50.29
63306;BME280;50735;52.060;1.248;2023-10-09T04:53:13;101740.52;;;13.88;50.80
63306;BME280;50735;52.060;1.248;2023-10-09T04:55:45;101737.36;;;13.94;51.10
63306;BME280;50735;52.060;1.248;2023-10-09T04:58:16;101734.32;;;13.67;51.25
63306;BME280;50735;52.060;1.248;2023-10-09T05:00:48;101735.27;;;13.71;51.05
63306;BME280;50735;52.060;1.248;2023-10-09T05:03:20;101725.57;;;13.62;51.54
63306;BME280;50735;52.060;1.248;2023-10-09T05:05:52;101727.41;;;13.57;51.20
63306;BME280;50735;52.060;1.248;2023-10-09T05:08:24;101725.90;;;13.54;51.31
63306;BME280;50735;52.060;1.248;2023-10-09T05:10:57;101717.17;;;13.54;51.18
63306;BME280;50735;52.060;1.248;2023-10-09T05:13:30;101723.09;;;13.60;51.02
63306;BME280;50735;52.060;1.248;2023-10-09T05:16:02;101726.97;;;13.63;50.87
63306;BME280;50735;52.060;1.248;2023-10-09T05:18:34;101725.47;;;13.51;50.74
63306;BME280;50735;52.060;1.248;2023-10-09T05:21:06;101746.77;;;13.60;50.81
63306;BME280;50735;52.060;1.248;2023-10-09T05:23:37;101760.14;;;13.54;50.97
63306;BME280;50735;52.060;1.248;2023-10-09T05:26:09;101761.29;;;13.43;51.28
63306;BME280;50735;52.060;1.248;2023-10-09T05:28:40;101756.68;;;13.42;51.15
63306;BME280;50735;52.060;1.248;2023-10-09T05:31:12;101748.22;;;13.49;50.90
63306;BME280;50735;52.060;1.248;2023-10-09T05:33:44;101742.17;;;13.58;50.52
63306;BME280;50735;52.060;1.248;2023-10-09T05:36:16;101746.42;;;13.64;50.86
63306;BME280;50735;52.060;1.248;2023-10-09T05:38:47;101739.08;;;13.43;50.78
63306;BME280;50735;52.060;1.248;2023-10-09T05:41:19;101748.09;;;13.22;50.66
63306;BME280;50735;52.060;1.248;2023-10-09T05:43:51;101749.46;;;13.71;50.72
63306;BME280;50735;52.060;1.248;2023-10-09T05:46:22;101747.20;;;13.46;50.75
63306;BME280;50735;52.060;1.248;2023-10-09T05:48:54;101748.00;;;13.25;50.85
63306;BME280;50735;52.060;1.248;2023-10-09T05:51:26;101751.92;;;13.24;50.65
63306;BME280;50735;52.060;1.248;2023-10-09T05:53:58;101762.99;;;13.21;50.70
63306;BME280;50735;52.060;1.248;2023-10-09T05:56:30;101768.39;;;13.77;50.39
63306;BME280;50735;52.060;1.248;2023-10-09T05:59:01;101769.73;;;13.43;50.29
63306;BME280;50735;52.060;1.248;2023-10-09T06:01:33;101752.82;;;13.69;50.11
63306;BME280;50735;52.060;1.248;2023-10-09T06:04:05;101761.17;;;13.79;50.10
63306;BME280;50735;52.060;1.248;2023-10-09T06:06:37;101759.11;;;13.51;50.19
63306;BME280;50735;52.060;1.248;2023-10-09T06:09:09;101754.04;;;13.37;50.19
63306;BME280;50735;52.060;1.248;2023-10-09T06:11:41;101753.14;;;13.42;49.98
63306;BME280;50735;52.060;1.248;2023-10-09T06:14:13;101749.23;;;13.46;49.98
63306;BME280;50735;52.060;1.248;2023-10-09T06:16:45;101749.96;;;13.90;50.11
63306;BME280;50735;52.060;1.248;2023-10-09T06:19:16;101765.05;;;13.46;52.01
63306;BME280;50735;52.060;1.248;2023-10-09T06:21:49;101767.66;;;13.67;50.35
63306;BME280;50735;52.060;1.248;2023-10-09T06:24:22;101765.69;;;13.39;50.44
63306;BME280;50735;52.060;1.248;2023-10-09T06:26:53;101766.99;;;13.44;50.40
63306;BME280;50735;52.060;1.248;2023-10-09T06:29:25;101761.20;;;13.75;50.26
63306;BME280;50735;52.060;1.248;2023-10-09T06:31:57;101760.60;;;13.81;50.12
63306;BME280;50735;52.060;1.248;2023-10-09T06:34:28;101766.49;;;13.78;50.21
63306;BME280;50735;52.060;1.248;2023-10-09T06:37:00;101760.82;;;13.59;50.18
63306;BME280;50735;52.060;1.248;2023-10-09T06:39:34;101765.05;;;13.68;50.03
63306;BME280;50735;52.060;1.248;2023-10-09T06:42:06;101766.92;;;14.04;49.93
63306;BME280;50735;52.060;1.248;2023-10-09T06:44:38;101773.16;;;13.89;50.11
63306;BME280;50735;52.060;1.248;2023-10-09T06:47:10;101779.19;;;13.91;53.25
63306;BME280;50735;52.060;1.248;2023-10-09T06:49:41;101782.12;;;13.97;50.98
63306;BME280;50735;52.060;1.248;2023-10-09T06:52:13;101769.47;;;14.07;50.55
63306;BME280;50735;52.060;1.248;2023-10-09T06:54:44;101759.70;;;14.18;50.35
63306;BME280;50735;52.060;1.248;2023-10-09T06:57:17;101762.54;;;14.25;50.09
63306;BME280;50735;52.060;1.248;2023-10-09T06:59:49;101773.11;;;14.26;50.00
63306;BME280;50735;52.060;1.248;2023-10-09T07:02:21;101774.80;;;14.18;50.09
63306;BME280;50735;52.060;1.248;2023-10-09T07:04:53;101770.63;;;14.11;50.11
63306;BME280;50735;52.060;1.248;2023-10-09T07:07:24;101768.56;;;14.09;50.10
63306;BME280;50735;52.060;1.248;2023-10-09T07:09:56;101761.05;;;14.08;50.11
63306;BME280;50735;52.060;1.248;2023-10-09T07:12:28;101757.32;;;14.00;50.04
63306;BME280;50735;52.060;1.248;2023-10-09T07:15:00;101763.10;;;14.17;50.10
63306;BME280;50735;52.060;1.248;2023-10-09T07:17:32;101768.65;;;14.11;50.26
63306;BME280;50735;52.060;1.248;2023-10-09T07:20:05;101774.47;;;13.75;50.67
63306;BME280;50735;52.060;1.248;2023-10-09T07:22:36;101777.97;;;13.95;50.55
63306;BME280;50735;52.060;1.248;2023-10-09T07:25:08;101777.92;;;13.87;50.75
63306;BME280;50735;52.060;1.248;2023-10-09T07:27:40;101780.44;;;13.72;51.26
63306;BME280;50735;52.060;1.248;2023-10-09T07:30:14;101785.79;;;13.83;51.01
63306;BME280;50735;52.060;1.248;2023-10-09T07:32:46;101787.26;;;13.92;50.94
63306;BME280;50735;52.060;1.248;2023-10-09T07:35:18;101782.03;;;13.75;51.47
63306;BME280;50735;52.060;1.248;2023-10-09T07:37:50;101779.77;;;13.78;51.58
63306;BME280;50735;52.060;1.248;2023-10-09T07:40:22;101784.95;;;13.88;51.32
63306;BME280;50735;52.060;1.248;2023-10-09T07:42:54;101787.38;;;14.01;51.74
63306;BME280;50735;52.060;1.248;2023-10-09T07:45:26;101779.94;;;13.93;52.00
63306;BME280;50735;52.060;1.248;2023-10-09T07:47:57;101779.64;;;13.82;51.82
63306;BME280;50735;52.060;1.248;2023-10-09T07:50:35;101785.08;;;13.67;51.57
63306;BME280;50735;52.060;1.248;2023-10-09T07:53:07;101788.36;;;13.89;51.52
63306;BME280;50735;52.060;1.248;2023-10-09T07:55:39;101781.61;;;14.18;51.15
63306;BME280;50735;52.060;1.248;2023-10-09T07:58:11;101780.31;;;14.04;51.39
63306;BME280;50735;52.060;1.248;2023-10-09T08:00:43;101798.82;;;13.90;51.10
63306;BME280;50735;52.060;1.248;2023-10-09T08:03:15;101813.89;;;14.30;51.42
63306;BME280;50735;52.060;1.248;2023-10-09T08:05:47;101807.39;;;13.77;51.75
63306;BME280;50735;52.060;1.248;2023-10-09T08:08:18;101808.03;;;14.15;51.70
63306;BME280;50735;52.060;1.248;2023-10-09T08:10:50;101811.68;;;13.92;51.85
63306;BME280;50735;52.060;1.248;2023-10-09T08:13:22;101820.00;;;13.73;52.25
63306;BME280;50735;52.060;1.248;2023-10-09T08:15:55;101824.71;;;13.77;51.98
63306;BME280;50735;52.060;1.248;2023-10-09T08:18:28;101828.65;;;13.98;52.22
63306;BME280;50735;52.060;1.248;2023-10-09T08:21:02;101828.96;;;13.80;52.47
63306;BME280;50735;52.060;1.248;2023-10-09T08:23:34;101830.43;;;13.89;52.36
63306;BME280;50735;52.060;1.248;2023-10-09T08:26:06;101834.03;;;14.61;51.88
63306;BME280;50735;52.060;1.248;2023-10-09T08:28:38;101831.70;;;14.60;50.93
63306;BME280;50735;52.060;1.248;2023-10-09T08:31:13;101836.83;;;14.56;51.33
63306;BME280;50735;52.060;1.248;2023-10-09T08:33:45;101837.01;;;14.51;51.93
63306;BME280;50735;52.060;1.248;2023-10-09T08:36:17;101835.94;;;14.69;51.53
63306;BME280;50735;52.060;1.248;2023-10-09T08:38:49;101833.55;;;14.57;51.23
63306;BME280;50735;52.060;1.248;2023-10-09T08:41:20;101834.70;;;14.63;51.47
63306;BME280;50735;52.060;1.248;2023-10-09T08:43:53;101840.19;;;14.91;50.61
63306;BME280;50735;52.060;1.248;2023-10-09T08:46:26;101841.19;;;14.53;51.37
63306;BME280;50735;52.060;1.248;2023-10-09T08:48:59;101840.11;;;14.54;51.71
63306;BME280;50735;52.060;1.248;2023-10-09T08:51:31;101836.64;;;14.69;51.48
63306;BME280;50735;52.060;1.248;2023-10-09T08:54:07;101840.77;;;14.45;51.12
63306;BME280;50735;52.060;1.248;2023-10-09T08:56:38;101836.61;;;14.51;51.54
63306;BME280;50735;52.060;1.248;2023-10-09T08:59:10;101831.09;;;14.72;51.59
63306;BME280;50735;52.060;1.248;2023-10-09T09:01:42;101817.21;;;14.67;51.31
63306;BME280;50735;52.060;1.248;2023-10-09T09:04:33;101820.64;;;14.63;51.32
63306;BME280;50735;52.060;1.248;2023-10-09T09:07:06;101826.16;;;14.80;51.57
63306;BME280;50735;52.060;1.248;2023-10-09T09:09:38;101828.12;;;14.44;51.55
63306;BME280;50735;52.060;1.248;2023-10-09T09:12:13;101836.36;;;14.39;51.61
63306;BME280;50735;52.060;1.248;2023-10-09T09:14:44;101830.15;;;14.97;51.09
63306;BME280;50735;52.060;1.248;2023-10-09T09:17:22;101827.29;;;15.26;50.67
63306;BME280;50735;52.060;1.248;2023-10-09T09:19:54;101829.45;;;15.41;50.63
63306;BME280;50735;52.060;1.248;2023-10-09T09:22:26;101830.31;;;15.60;50.30
63306;BME280;50735;52.060;1.248;2023-10-09T09:24:58;101818.16;;;15.85;49.29
63306;BME280;50735;52.060;1.248;2023-10-09T09:27:46;101812.08;;;15.65;49.91
63306;BME280;50735;52.060;1.248;2023-10-09T09:30:26;101814.56;;;15.82;49.62
63306;BME280;50735;52.060;1.248;2023-10-09T09:33:00;101817.85;;;15.99;49.52
63306;BME280;50735;52.060;1.248;2023-10-09T09:36:04;101813.34;;;16.26;49.21
63306;BME280;50735;52.060;1.248;2023-10-09T09:38:37;101815.93;;;16.73;48.92
63306;BME280;50735;52.060;1.248;2023-10-09T09:41:11;101813.23;;;17.21;48.01
63306;BME280;50735;52.060;1.248;2023-10-09T09:43:44;101817.51;;;17.07;47.70
63306;BME280;50735;52.060;1.248;2023-10-09T09:46:16;101825.17;;;17.64;47.01
63306;BME280;50735;52.060;1.248;2023-10-09T09:48:50;101832.48;;;18.02;46.48
63306;BME280;50735;52.060;1.248;2023-10-09T09:51:21;101836.47;;;18.13;45.35
63306;BME280;50735;52.060;1.248;2023-10-09T09:53:53;101837.99;;;18.22;45.09
63306;BME280;50735;52.060;1.248;2023-10-09T09:56:25;101833.19;;;18.62;45.13
63306;BME280;50735;52.060;1.248;2023-10-09T09:59:02;101825.55;;;18.60;44.35
63306;BME280;50735;52.060;1.248;2023-10-09T10:01:35;101825.90;;;18.93;44.88
63306;BME280;50735;52.060;1.248;2023-10-09T10:04:12;101820.47;;;19.25;43.98
63306;BME280;50735;52.060;1.248;2023-10-09T10:06:47;101826.61;;;19.38;42.83
63306;BME280;50735;52.060;1.248;2023-10-09T10:09:34;101832.05;;;19.42;43.51
63306;BME280;50735;52.060;1.248;2023-10-09T10:12:07;101831.30;;;19.38;42.48
63306;BME280;50735;52.060;1.248;2023-10-09T10:14:55;101830.79;;;19.27;42.92
63306;BME280;50735;52.060;1.248;2023-10-09T10:17:28;101827.59;;;19.32;42.69
63306;BME280;50735;52.060;1.248;2023-10-09T10:20:02;101829.54;;;19.50;42.66
63306;BME280;50735;52.060;1.248;2023-10-09T10:22:35;101831.23;;;19.57;42.85
63306;BME280;50735;52.060;1.248;2023-10-09T10:25:07;101832.51;;;20.40;42.39
63306;BME280;50735;52.060;1.248;2023-10-09T10:27:39;101838.16;;;20.79;41.69
63306;BME280;50735;52.060;1.248;2023-10-09T10:30:27;101832.22;;;20.87;41.49
63306;BME280;50735;52.060;1.248;2023-10-09T10:33:01;101826.94;;;20.90;40.78
63306;BME280;50735;52.060;1.248;2023-10-09T10:35:33;101827.48;;;20.99;40.55
63306;BME280;50735;52.060;1.248;2023-10-09T10:38:22;101832.73;;;21.06;39.88
63306;BME280;50735;52.060;1.248;2023-10-09T10:40:54;101837.47;;;21.09;40.12
63306;BME280;50735;52.060;1.248;2023-10-09T10:43:26;101833.83;;;21.09;39.10
63306;BME280;50735;52.060;1.248;2023-10-09T10:46:02;101838.53;;;21.55;39.08
63306;BME280;50735;52.060;1.248;2023-10-09T10:48:34;101836.23;;;21.26;39.00
63306;BME280;50735;52.060;1.248;2023-10-09T10:51:06;101838.37;;;20.73;39.57
63306;BME280;50735;52.060;1.248;2023-10-09T10:53:50;101835.31;;;21.28;40.50
63306;BME280;50735;52.060;1.248;2023-10-09T10:56:21;101836.63;;;21.46;40.12
63306;BME280;50735;52.060;1.248;2023-10-09T10:58:54;101833.10;;;21.43;39.16
63306;BME280;50735;52.060;1.248;2023-10-09T11:01:30;101826.85;;;21.32;39.79
63306;BME280;50735;52.060;1.248;2023-10-09T11:04:10;101826.15;;;20.96;39.68
63306;BME280;50735;52.060;1.248;2023-10-09T11:06:43;101824.02;;;20.52;40.19
63306;BME280;50735;52.060;1.248;2023-10-09T11:09:15;101827.63;;;20.72;40.06
63306;BME280;50735;52.060;1.248;2023-10-09T11:11:48;101829.65;;;21.34;39.56
63306;BME280;50735;52.060;1.248;2023-10-09T11:14:20;101822.18;;;21.69;39.57
63306;BME280;50735;52.060;1.248;2023-10-09T11:16:52;101823.43;;;21.48;38.70
63306;BME280;50735;52.060;1.248;2023-10-09T11:19:26;101826.75;;;22.00;39.12
63306;BME280;50735;52.060;1.248;2023-10-09T11:21:59;101827.57;;;22.57;38.17
63306;BME280;50735;52.060;1.248;2023-10-09T11:24:33;101828.62;;;23.17;37.21
63306;BME280;50735;52.060;1.248;2023-10-09T11:27:06;101820.90;;;23.40;36.78
63306;BME280;50735;52.060;1.248;2023-10-09T11:29:47;101821.46;;;23.59;36.13
63306;BME280;50735;52.060;1.248;2023-10-09T11:32:21;101818.47;;;24.37;35.88
63306;BME280;50735;52.060;1.248;2023-10-09T11:35:11;101817.14;;;24.86;34.50
63306;BME280;50735;52.060;1.248;2023-10-09T11:37:43;101818.45;;;25.29;34.36
63306;BME280;50735;52.060;1.248;2023-10-09T11:40:32;101815.45;;;25.79;34.31
63306;BME280;50735;52.060;1.248;2023-10-09T11:43:04;101810.52;;;25.72;31.90
63306;BME280;50735;52.060;1.248;2023-10-09T11:45:36;101809.48;;;25.74;32.52
63306;BME280;50735;52.060;1.248;2023-10-09T11:48:23;101810.00;;;25.60;32.25
63306;BME280;50735;52.060;1.248;2023-10-09T11:50:55;101811.21;;;25.67;32.24
63306;BME280;50735;52.060;1.248;2023-10-09T11:53:26;101812.59;;;25.93;32.86
63306;BME280;50735;52.060;1.248;2023-10-09T11:55:59;101813.74;;;26.16;32.35
63306;BME280;50735;52.060;1.248;2023-10-09T11:58:30;101816.53;;;26.72;32.17
63306;BME280;50735;52.060;1.248;2023-10-09T12:01:11;101816.90;;;26.56;31.91
63306;BME280;50735;52.060;1.248;2023-10-09T12:03:43;101816.37;;;26.10;31.35
63306;BME280;50735;52.060;1.248;2023-10-09T12:06:16;101811.92;;;26.79;31.53
63306;BME280;50735;52.060;1.248;2023-10-09T12:08:48;101808.77;;;26.63;30.66
63306;BME280;50735;52.060;1.248;2023-10-09T12:11:20;101804.89;;;26.42;30.53
63306;BME280;50735;52.060;1.248;2023-10-09T12:13:52;101804.69;;;26.33;30.62
63306;BME280;50735;52.060;1.248;2023-10-09T12:16:24;101807.74;;;26.29;30.30
63306;BME280;50735;52.060;1.248;2023-10-09T12:18:57;101806.62;;;26.00;31.01
63306;BME280;50735;52.060;1.248;2023-10-09T12:21:29;101806.01;;;26.43;30.82
63306;BME280;50735;52.060;1.248;2023-10-09T12:24:01;101804.55;;;26.49;30.78
63306;BME280;50735;52.060;1.248;2023-10-09T12:26:32;101799.80;;;26.01;31.38
63306;BME280;50735;52.060;1.248;2023-10-09T12:29:05;101792.14;;;26.03;31.43
63306;BME280;50735;52.060;1.248;2023-10-09T12:31:36;101790.73;;;26.26;32.12
63306;BME280;50735;52.060;1.248;2023-10-09T12:34:09;101785.35;;;26.64;31.41
63306;BME280;50735;52.060;1.248;2023-10-09T12:36:40;101788.57;;;27.05;30.85
63306;BME280;50735;52.060;1.248;2023-10-09T12:39:12;101786.44;;;27.44;30.42
63306;BME280;50735;52.060;1.248;2023-10-09T12:41:44;101788.66;;;27.45;30.46
63306;BME280;50735;52.060;1.248;2023-10-09T12:44:16;101789.50;;;28.11;29.58
63306;BME280;50735;52.060;1.248;2023-10-09T12:46:48;101785.53;;;27.54;29.05
63306;BME280;50735;52.060;1.248;2023-10-09T12:49:22;101783.95;;;27.89;28.99
63306;BME280;50735;52.060;1.248;2023-10-09T12:51:54;101782.66;;;27.75;28.78
63306;BME280;50735;52.060;1.248;2023-10-09T12:54:26;101774.57;;;28.30;28.88
63306;BME280;50735;52.060;1.248;2023-10-09T12:56:58;101775.58;;;28.73;28.82
63306;BME280;50735;52.060;1.248;2023-10-09T12:59:29;101775.44;;;28.81;28.42
63306;BME280;50735;52.060;1.248;2023-10-09T13:02:01;101770.38;;;28.41;27.91
63306;BME280;50735;52.060;1.248;2023-10-09T13:04:32;101770.36;;;27.82;27.80
63306;BME280;50735;52.060;1.248;2023-10-09T13:07:05;101771.69;;;27.47;28.01
63306;BME280;50735;52.060;1.248;2023-10-09T13:09:36;101777.05;;;27.01;28.66
63306;BME280;50735;52.060;1.248;2023-10-09T13:12:08;101780.16;;;26.72;29.51
63306;BME280;50735;52.060;1.248;2023-10-09T13:14:39;101778.47;;;26.72;29.74
63306;BME280;50735;52.060;1.248;2023-10-09T13:17:11;101773.00;;;26.91;29.85
63306;BME280;50735;52.060;1.248;2023-10-09T13:19:43;101767.92;;;27.25;30.05